sensor_id;sensor_type;location;lat;lon;timestamp;pressure;altitude;pressure_sealevel;temperature;humidity
38939;BME280;24211;49.980;19.776;2023-03-21T00:01:55;99292.31;;;10.54;100.00
38939;BME280;24211;49.980;19.776;2023-03-21T00:04:25;99296.88;;;10.54;100.00
38939;BME280;24211;49.980;19.776;2023-03-21T00:06:56;99296.88;;;10.54;100.00
38939;BME280;24211;49.980;19.776;2023-03-21T00:09:24;99289.88;;;10.52;100.00
38939;BME280;24211;49.980;19.776;2023-03-21T00:11:51;99289.88;;;10.52;100.00
38939;BME280;24211;49.980;19.776;2023-03-21T00:14:19;99290.94;;;10.52;100.00
38939;BME280;24211;49.980;19.776;2023-03-21T00:16:48;99290.31;;;10.49;100.00
38939;BME280;24211;49.980;19.776;2023-03-21T00:19:19;99287.66;;;10.49;100.00
38939;BME280;24211;49.980;19.776;2023-03-21T00:21:56;99287.06;;;10.47;100.00
38939;BME280;24211;49.980;19.776;2023-03-21T00:24:35;99278.47;;;10.45;100.00
38939;BME280;24211;49.980;19.776;2023-03-21T00:27:04;99276.81;;;10.44;100.00
38939;BME280;24211;49.980;19.776;2023-03-21T00:29:54;99280.56;;;10.43;100.00
38939;BME280;24211;49.980;19.776;2023-03-21T00:32:22;99279.72;;;10.43;100.00
38939;BME280;24211;49.980;19.776;2023-03-21T00:34:50;99277.28;;;10.41;100.00
38939;BME280;24211;49.980;19.776;2023-03-21T00:37:38;99274.00;;;10.39;100.00
38939;BME280;24211;49.980;19.776;2023-03-21T00:40:10;99274.00;;;10.39;100.00
38939;BME280;24211;49.980;19.776;2023-03-21T00:42:52;99268.31;;;10.36;100.00
38939;BME280;24211;49.980;19.776;2023-03-21T00:45:20;99267.50;;;10.35;100.00
38939;BME280;24211;49.980;19.776;2023-03-21T00:47:48;99261.56;;;10.33;100.00
38939;BME280;24211;49.980;19.776;2023-03-21T00:50:17;99262.38;;;10.34;100.00
38939;BME280;24211;49.980;19.776;2023-03-21T00:52:45;99267.94;;;10.32;100.00
38939;BME280;24211;49.980;19.776;2023-03-21T00:55:15;99259.91;;;10.32;100.00
38939;BME280;24211;49.980;19.776;2023-03-21T00:57:44;99264.66;;;10.30;100.00
38939;BME280;24211;49.980;19.776;2023-03-21T01:00:20;99263.06;;;10.29;100.00
38939;BME280;24211;49.980;19.776;2023-03-21T01:02:48;99265.94;;;10.28;100.00
38939;BME280;24211;49.980;19.776;2023-03-21T01:05:45;99264.53;;;10.25;100.00
38939;BME280;24211;49.980;19.776;2023-03-21T01:08:41;99266.16;;;10.26;100.00
38939;BME280;24211;49.980;19.776;2023-03-21T01:11:27;99268.25;;;10.24;100.00
38939;BME280;24211;49.980;19.776;2023-03-21T01:13:56;99259.63;;;10.22;100.00
38939;BME280;24211;49.980;19.776;2023-03-21T01:16:42;99260.69;;;10.21;100.00
38939;BME280;24211;49.980;19.776;2023-03-21T01:19:15;99264.38;;;10.20;100.00
38939;BME280;24211;49.980;19.776;2023-03-21T01:21:55;99261.72;;;10.20;100.00
38939;BME280;24211;49.980;19.776;2023-03-21T01:24:23;99262.75;;;10.19;100.00
38939;BME280;24211;49.980;19.776;2023-03-21T01:26:52;99261.13;;;10.18;100.00
38939;BME280;24211;49.980;19.776;2023-03-21T01:29:19;99261.13;;;10.18;100.00
38939;BME280;24211;49.980;19.776;2023-03-21T01:31:47;99254.13;;;10.17;100.00
38939;BME280;24211;49.980;19.776;2023-03-21T01:34:15;99260.53;;;10.16;100.00
38939;BME280;24211;49.980;19.776;2023-03-21T01:36:43;99260.75;;;10.15;100.00
38939;BME280;24211;49.980;19.776;2023-03-21T01:39:16;99257.03;;;10.16;100.00
38939;BME280;24211;49.980;19.776;2023-03-21T01:41:47;99268.75;;;10.15;100.00
38939;BME280;24211;49.980;19.776;2023-03-21T01:44:21;99266.91;;;10.15;100.00
38939;BME280;24211;49.980;19.776;2023-03-21T01:46:51;99259.94;;;10.14;100.00
38939;BME280;24211;49.980;19.776;2023-03-21T01:50:02;99266.06;;;10.15;100.00
38939;BME280;24211;49.980;19.776;2023-03-21T01:52:38;99257.28;;;10.14;100.00
38939;BME280;24211;49.980;19.776;2023-03-21T01:55:16;99256.22;;;10.15;100.00
38939;BME280;24211;49.980;19.776;2023-03-21T01:58:01;99251.94;;;10.14;100.00
38939;BME280;24211;49.980;19.776;2023-03-21T02:00:56;99252.72;;;10.15;100.00
38939;BME280;24211;49.980;19.776;2023-03-21T02:03:38;99255.41;;;10.15;100.00
38939;BME280;24211;49.980;19.776;2023-03-21T02:06:34;99259.94;;;10.14;100.00
38939;BME280;24211;49.980;19.776;2023-03-21T02:09:17;99259.13;;;10.14;100.00
38939;BME280;24211;49.980;19.776;2023-03-21T02:11:47;99265.28;;;10.14;100.00
38939;BME280;24211;49.980;19.776;2023-03-21T02:14:18;99257.47;;;10.13;100.00
38939;BME280;24211;49.980;19.776;2023-03-21T02:33:45;99267.03;;;10.02;100.00
38939;BME280;24211;49.980;19.776;2023-03-21T02:37:28;99262.28;;;10.04;100.00
38939;BME280;24211;49.980;19.776;2023-03-21T02:41:00;99264.38;;;10.02;100.00
38939;BME280;24211;49.980;19.776;2023-03-21T02:44:02;99262.97;;;10.00;100.00
38939;BME280;24211;49.980;19.776;2023-03-21T02:46:58;99261.31;;;9.99;100.00
38939;BME280;24211;49.980;19.776;2023-03-21T02:50:51;99263.81;;;9.94;100.00
38939;BME280;24211;49.980;19.776;2023-03-21T02:53:36;99268.81;;;9.90;100.00
38939;BME280;24211;49.980;19.776;2023-03-21T02:56:10;99264.34;;;9.84;100.00
38939;BME280;24211;49.980;19.776;2023-03-21T02:58:47;99268.94;;;9.77;100.00
38939;BME280;24211;49.980;19.776;2023-03-21T03:01:20;99270.38;;;9.73;100.00
38939;BME280;24211;49.980;19.776;2023-03-21T03:03:51;99272.47;;;9.71;100.00
38939;BME280;24211;49.980;19.776;2023-03-21T03:06:51;99268.19;;;9.70;100.00
38939;BME280;24211;49.980;19.776;2023-03-21T03:10:28;99267.28;;;9.76;100.00
38939;BME280;24211;49.980;19.776;2023-03-21T03:13:14;99267.72;;;9.73;100.00
38939;BME280;24211;49.980;19.776;2023-03-21T03:18:57;99269.81;;;9.71;100.00
38939;BME280;24211;49.980;19.776;2023-03-21T03:21:48;99268.78;;;9.72;100.00
38939;BME280;24211;49.980;19.776;2023-03-21T03:27:43;99275.97;;;9.71;100.00
38939;BME280;24211;49.980;19.776;2023-03-21T03:30:13;99275.97;;;9.71;100.00
38939;BME280;24211;49.980;19.776;2023-03-21T03:32:56;99273.53;;;9.70;100.00
38939;BME280;24211;49.980;19.776;2023-03-21T03:35:28;99273.06;;;9.73;100.00
38939;BME280;24211;49.980;19.776;2023-03-21T03:38:05;99277.38;;;9.74;100.00
38939;BME280;24211;49.980;19.776;2023-03-21T03:40:44;99273.69;;;9.75;100.00
38939;BME280;24211;49.980;19.776;2023-03-21T03:43:45;99285.97;;;9.76;100.00
38939;BME280;24211;49.980;19.776;2023-03-21T03:46:28;99272.44;;;9.77;100.00
38939;BME280;24211;49.980;19.776;2023-03-21T03:49:14;99276.34;;;9.75;100.00
38939;BME280;24211;49.980;19.776;2023-03-21T03:52:03;99275.28;;;9.76;100.00
38939;BME280;24211;49.980;19.776;2023-03-21T03:54:43;99273.22;;;9.78;100.00
38939;BME280;24211;49.980;19.776;2023-03-21T03:57:14;99274.28;;;9.77;100.00
38939;BME280;24211;49.980;19.776;2023-03-21T03:59:45;99271.59;;;9.77;100.00
38939;BME280;24211;49.980;19.776;2023-03-21T04:03:11;99277.38;;;9.74;100.00
38939;BME280;24211;49.980;19.776;2023-03-21T04:05:42;99276.34;;;9.75;100.00
38939;BME280;24211;49.980;19.776;2023-03-21T04:08:16;99274.69;;;9.74;100.00
38939;BME280;24211;49.980;19.776;2023-03-21T04:10:54;99267.72;;;9.73;100.00
38939;BME280;24211;49.980;19.776;2023-03-21T04:13:40;99266.47;;;9.75;100.00
38939;BME280;24211;49.980;19.776;2023-03-21T04:16:24;99265.69;;;9.75;100.00
38939;BME280;24211;49.980;19.776;2023-03-21T04:18:54;99267.28;;;9.76;100.00
38939;BME280;24211;49.980;19.776;2023-03-21T04:21:27;99267.28;;;9.76;100.00
38939;BME280;24211;49.980;19.776;2023-03-21T04:24:04;99265.69;;;9.75;100.00
38939;BME280;24211;49.980;19.776;2023-03-21T04:26:34;99270.53;;;9.78;100.00
38939;BME280;24211;49.980;19.776;2023-03-21T04:29:22;99269.13;;;9.75;100.00
38939;BME280;24211;49.980;19.776;2023-03-21T04:32:12;99266.69;;;9.74;100.00
38939;BME280;24211;49.980;19.776;2023-03-21T04:34:52;99270.19;;;9.74;100.00
38939;BME280;24211;49.980;19.776;2023-03-21T04:37:26;99266.94;;;9.72;100.00
38939;BME280;24211;49.980;19.776;2023-03-21T04:39:55;99255.88;;;9.69;100.00
38939;BME280;24211;49.980;19.776;2023-03-21T04:42:24;99261.78;;;9.71;100.00
38939;BME280;24211;49.980;19.776;2023-03-21T04:44:54;99253.19;;;9.69;100.00
38939;BME280;24211;49.980;19.776;2023-03-21T04:47:23;99266.19;;;9.65;100.00
38939;BME280;24211;49.980;19.776;2023-03-21T04:49:54;99266.38;;;9.64;100.00
38939;BME280;24211;49.980;19.776;2023-03-21T04:52:24;99271.56;;;9.59;100.00
38939;BME280;24211;49.980;19.776;2023-03-21T04:54:52;99266.66;;;9.56;100.00
38939;BME280;24211;49.980;19.776;2023-03-21T04:57:20;99278.56;;;9.53;100.00
38939;BME280;24211;49.980;19.776;2023-03-21T04:59:48;99275.72;;;9.55;100.00
38939;BME280;24211;49.980;19.776;2023-03-21T05:02:16;99275.72;;;9.55;100.00
38939;BME280;24211;49.980;19.776;2023-03-21T05:04:44;99276.97;;;9.52;100.00
38939;BME280;24211;49.980;19.776;2023-03-21T05:07:12;99275.13;;;9.53;100.00
38939;BME280;24211;49.980;19.776;2023-03-21T05:09:40;99276.13;;;9.52;100.00
38939;BME280;24211;49.980;19.776;2023-03-21T05:12:08;99275.91;;;9.53;100.00
38939;BME280;24211;49.980;19.776;2023-03-21T05:14:35;99267.13;;;9.53;100.00
38939;BME280;24211;49.980;19.776;2023-03-21T05:17:05;99273.69;;;9.50;100.00
38939;BME280;24211;49.980;19.776;2023-03-21T05:19:34;99277.41;;;9.49;100.00
38939;BME280;24211;49.980;19.776;2023-03-21T05:22:08;99274.53;;;9.51;100.00
38939;BME280;24211;49.980;19.776;2023-03-21T05:24:37;99276.13;;;9.52;100.00
38939;BME280;24211;49.980;19.776;2023-03-21T05:27:09;99282.31;;;9.52;100.00
38939;BME280;24211;49.980;19.776;2023-03-21T05:29:42;99283.13;;;9.53;100.00
38939;BME280;24211;49.980;19.776;2023-03-21T05:32:11;99288.47;;;9.53;100.00
38939;BME280;24211;49.980;19.776;2023-03-21T05:34:39;99285.19;;;9.51;100.00
38939;BME280;24211;49.980;19.776;2023-03-21T05:37:07;99294.22;;;9.50;100.00
38939;BME280;24211;49.980;19.776;2023-03-21T05:39:46;99296.88;;;9.50;100.00
38939;BME280;24211;49.980;19.776;2023-03-21T05:42:21;99289.72;;;9.50;100.00
38939;BME280;24211;49.980;19.776;2023-03-21T05:44:49;99292.97;;;9.52;100.00
38939;BME280;24211;49.980;19.776;2023-03-21T05:47:22;99292.16;;;9.52;100.00
38939;BME280;24211;49.980;19.776;2023-03-21T05:49:52;99290.53;;;9.51;100.00
38939;BME280;24211;49.980;19.776;2023-03-21T05:52:23;99298.53;;;9.51;100.00
38939;BME280;24211;49.980;19.776;2023-03-21T05:55:03;99302.81;;;9.52;100.00
38939;BME280;24211;49.980;19.776;2023-03-21T05:57:32;99308.16;;;9.52;100.00
38939;BME280;24211;49.980;19.776;2023-03-21T06:00:09;99303.88;;;9.51;100.00
38939;BME280;24211;49.980;19.776;2023-03-21T06:02:53;99304.47;;;9.53;100.00
38939;BME280;24211;49.980;19.776;2023-03-21T06:05:43;99307.94;;;9.53;100.00
38939;BME280;24211;49.980;19.776;2023-03-21T06:08:18;99304.47;;;9.53;100.00
38939;BME280;24211;49.980;19.776;2023-03-21T06:10:46;99304.22;;;9.54;100.00
38939;BME280;24211;49.980;19.776;2023-03-21T06:13:14;99297.88;;;9.55;100.00
38939;BME280;24211;49.980;19.776;2023-03-21T06:15:42;99309.34;;;9.56;100.00
38939;BME280;24211;49.980;19.776;2023-03-21T06:18:21;99301.34;;;9.56;100.00
38939;BME280;24211;49.980;19.776;2023-03-21T06:20:54;99301.13;;;9.57;100.00
38939;BME280;24211;49.980;19.776;2023-03-21T06:23:24;99305.41;;;9.58;100.00
38939;BME280;24211;49.980;19.776;2023-03-21T06:25:53;99311.56;;;9.59;100.00
38939;BME280;24211;49.980;19.776;2023-03-21T06:28:26;99317.50;;;9.61;100.00
38939;BME280;24211;49.980;19.776;2023-03-21T06:30:54;99315.47;;;9.63;100.00
38939;BME280;24211;49.980;19.776;2023-03-21T06:33:25;99311.31;;;9.67;100.00
38939;BME280;24211;49.980;19.776;2023-03-21T06:35:57;99304.31;;;9.66;100.00
38939;BME280;24211;49.980;19.776;2023-03-21T06:38:28;99311.91;;;9.69;100.00
38939;BME280;24211;49.980;19.776;2023-03-21T06:40:57;99314.56;;;9.69;100.00
38939;BME280;24211;49.980;19.776;2023-03-21T06:43:31;99315.75;;;9.73;100.00
38939;BME280;24211;49.980;19.776;2023-03-21T06:46:02;99310.00;;;9.76;100.00
38939;BME280;24211;49.980;19.776;2023-03-21T06:48:33;99303.19;;;9.80;100.00
38939;BME280;24211;49.980;19.776;2023-03-21T06:51:02;99309.94;;;9.82;100.00
38939;BME280;24211;49.980;19.776;2023-03-21T06:53:36;99309.72;;;9.84;100.00
38939;BME280;24211;49.980;19.776;2023-03-21T06:56:21;99304.97;;;9.86;100.00
38939;BME280;24211;49.980;19.776;2023-03-21T06:58:49;99311.53;;;9.90;100.00
38939;BME280;24211;49.980;19.776;2023-03-21T07:01:35;99308.19;;;9.95;100.00
38939;BME280;24211;49.980;19.776;2023-03-21T07:04:06;99313.44;;;10.01;100.00
38939;BME280;24211;49.980;19.776;2023-03-21T07:06:34;99310.94;;;10.06;100.00
38939;BME280;24211;49.980;19.776;2023-03-21T07:09:05;99306.78;;;10.10;100.00
38939;BME280;24211;49.980;19.776;2023-03-21T07:11:35;99312.31;;;10.15;100.00
38939;BME280;24211;49.980;19.776;2023-03-21T07:14:06;99315.13;;;10.20;100.00
38939;BME280;24211;49.980;19.776;2023-03-21T07:16:34;99311.00;;;10.24;100.00
38939;BME280;24211;49.980;19.776;2023-03-21T07:19:04;99315.66;;;10.29;100.00
38939;BME280;24211;49.980;19.776;2023-03-21T07:21:31;99319.28;;;10.34;100.00
38939;BME280;24211;49.980;19.776;2023-03-21T07:24:01;99318.38;;;10.40;100.00
38939;BME280;24211;49.980;19.776;2023-03-21T07:26:29;99313.34;;;10.50;100.00
38939;BME280;24211;49.980;19.776;2023-03-21T07:29:00;99312.72;;;10.67;100.00
38939;BME280;24211;49.980;19.776;2023-03-21T07:31:30;99301.03;;;10.79;100.00
38939;BME280;24211;49.980;19.776;2023-03-21T07:33:58;99308.31;;;10.90;100.00
38939;BME280;24211;49.980;19.776;2023-03-21T07:36:26;99306.84;;;11.06;100.00
38939;BME280;24211;49.980;19.776;2023-03-21T07:38:54;99301.16;;;11.14;100.00
38939;BME280;24211;49.980;19.776;2023-03-21T07:41:23;99299.34;;;11.26;100.00
38939;BME280;24211;49.980;19.776;2023-03-21T07:43:52;99296.91;;;11.36;100.00
38939;BME280;24211;49.980;19.776;2023-03-21T07:46:20;99296.47;;;11.39;100.00
38939;BME280;24211;49.980;19.776;2023-03-21T07:48:48;99307.50;;;11.43;100.00
38939;BME280;24211;49.980;19.776;2023-03-21T07:51:17;99311.50;;;11.52;100.00
38939;BME280;24211;49.980;19.776;2023-03-21T07:53:47;99309.84;;;11.62;100.00
38939;BME280;24211;49.980;19.776;2023-03-21T07:56:17;99312.81;;;11.72;100.00
38939;BME280;24211;49.980;19.776;2023-03-21T07:58:46;99314.69;;;11.84;100.00
38939;BME280;24211;49.980;19.776;2023-03-21T08:01:13;99313.88;;;11.95;100.00
38939;BME280;24211;49.980;19.776;2023-03-21T08:03:41;99311.19;;;12.06;100.00
38939;BME280;24211;49.980;19.776;2023-03-21T08:06:10;99313.88;;;12.18;100.00
38939;BME280;24211;49.980;19.776;2023-03-21T08:08:39;99314.19;;;12.33;100.00
38939;BME280;24211;49.980;19.776;2023-03-21T08:11:06;99314.41;;;12.43;100.00
38939;BME280;24211;49.980;19.776;2023-03-21T08:13:36;99317.19;;;12.48;100.00
38939;BME280;24211;49.980;19.776;2023-03-21T08:16:04;99314.28;;;12.50;100.00
38939;BME280;24211;49.980;19.776;2023-03-21T08:18:38;99313.44;;;12.49;100.00
38939;BME280;24211;49.980;19.776;2023-03-21T08:21:08;99317.66;;;12.45;100.00
38939;BME280;24211;49.980;19.776;2023-03-21T08:23:44;99318.59;;;12.39;100.00
38939;BME280;24211;49.980;19.776;2023-03-21T08:26:21;99317.91;;;12.32;100.00
38939;BME280;24211;49.980;19.776;2023-03-21T08:28:53;99317.34;;;12.30;100.00
38939;BME280;24211;49.980;19.776;2023-03-21T08:31:33;99325.03;;;12.26;100.00
38939;BME280;24211;49.980;19.776;2023-03-21T08:34:14;99322.22;;;12.21;100.00
38939;BME280;24211;49.980;19.776;2023-03-21T08:36:53;99329.00;;;12.12;100.00
38939;BME280;24211;49.980;19.776;2023-03-21T08:39:21;99324.47;;;12.13;100.00
38939;BME280;24211;49.980;19.776;2023-03-21T08:41:50;99322.38;;;12.15;100.00
38939;BME280;24211;49.980;19.776;2023-03-21T08:44:21;99330.41;;;12.15;100.00
38939;BME280;24211;49.980;19.776;2023-03-21T08:46:51;99333.06;;;12.15;100.00
38939;BME280;24211;49.980;19.776;2023-03-21T08:49:21;99337.63;;;12.14;100.00
38939;BME280;24211;49.980;19.776;2023-03-21T08:51:57;99336.00;;;12.13;100.00
38939;BME280;24211;49.980;19.776;2023-03-21T08:55:18;99344.63;;;12.04;100.00
38939;BME280;24211;49.980;19.776;2023-03-21T08:58:39;99337.25;;;11.99;100.00
38939;BME280;24211;49.980;19.776;2023-03-21T09:01:23;99349.13;;;11.92;100.00
38939;BME280;24211;49.980;19.776;2023-03-21T09:04:02;99343.91;;;11.85;100.00
38939;BME280;24211;49.980;19.776;2023-03-21T09:06:34;99350.44;;;11.89;100.00
38939;BME280;24211;49.980;19.776;2023-03-21T09:09:11;99357.16;;;11.92;100.00
38939;BME280;24211;49.980;19.776;2023-03-21T09:11:40;99353.69;;;11.91;100.00
38939;BME280;24211;49.980;19.776;2023-03-21T09:14:13;99346.69;;;11.90;100.00
38939;BME280;24211;49.980;19.776;2023-03-21T09:16:40;99352.63;;;11.80;100.00
38939;BME280;24211;49.980;19.776;2023-03-21T09:19:16;99358.81;;;11.81;100.00
38939;BME280;24211;49.980;19.776;2023-03-21T09:21:55;99355.91;;;11.82;100.00
38939;BME280;24211;49.980;19.776;2023-03-21T09:24:28;99352.19;;;11.84;100.00
38939;BME280;24211;49.980;19.776;2023-03-21T09:26:56;99362.44;;;11.87;100.00
38939;BME280;24211;49.980;19.776;2023-03-21T09:29:29;99356.59;;;11.90;100.00
38939;BME280;24211;49.980;19.776;2023-03-21T09:32:01;99356.47;;;11.85;100.00
38939;BME280;24211;49.980;19.776;2023-03-21T09:34:35;99354.50;;;11.92;100.00
38939;BME280;24211;49.980;19.776;2023-03-21T09:37:11;99356.38;;;12.03;100.00
38939;BME280;24211;49.980;19.776;2023-03-21T09:40:02;99358.47;;;12.01;100.00
38939;BME280;24211;49.980;19.776;2023-03-21T09:46:30;99358.94;;;11.98;100.00
38939;BME280;24211;49.980;19.776;2023-03-21T09:50:14;99363.13;;;11.94;100.00
38939;BME280;24211;49.980;19.776;2023-03-21T09:53:21;99363.38;;;12.04;100.00
38939;BME280;24211;49.980;19.776;2023-03-21T09:56:08;99362.31;;;12.05;100.00
38939;BME280;24211;49.980;19.776;2023-03-21T09:58:52;99355.22;;;12.10;100.00
38939;BME280;24211;49.980;19.776;2023-03-21T10:01:33;99351.59;;;12.16;100.00
38939;BME280;24211;49.980;19.776;2023-03-21T10:04:13;99353.59;;;12.21;100.00
38939;BME280;24211;49.980;19.776;2023-03-21T10:06:59;99360.78;;;12.32;100.00
38939;BME280;24211;49.980;19.776;2023-03-21T10:09:31;99350.19;;;12.37;100.00
38939;BME280;24211;49.980;19.776;2023-03-21T10:12:19;99358.91;;;12.44;100.00
38939;BME280;24211;49.980;19.776;2023-03-21T10:14:56;99357.97;;;12.50;100.00
38939;BME280;24211;49.980;19.776;2023-03-21T10:17:34;99354.34;;;12.56;100.00
38939;BME280;24211;49.980;19.776;2023-03-21T10:22:46;99364.69;;;12.64;100.00
38939;BME280;24211;49.980;19.776;2023-03-21T10:25:21;99359.69;;;12.68;100.00
38939;BME280;24211;49.980;19.776;2023-03-21T10:27:52;99361.16;;;12.75;100.00
38939;BME280;24211;49.980;19.776;2023-03-21T10:30:39;99357.44;;;12.76;100.00
38939;BME280;24211;49.980;19.776;2023-03-21T10:33:23;99360.59;;;12.73;100.00
38939;BME280;24211;49.980;19.776;2023-03-21T10:36:04;99360.03;;;12.71;100.00
38939;BME280;24211;49.980;19.776;2023-03-21T10:38:34;99356.31;;;12.72;100.00
38939;BME280;24211;49.980;19.776;2023-03-21T10:41:03;99355.47;;;12.72;100.00
38939;BME280;24211;49.980;19.776;2023-03-21T10:43:35;99363.75;;;12.70;100.00
38939;BME280;24211;49.980;19.776;2023-03-21T10:46:16;99356.75;;;12.69;100.00
38939;BME280;24211;49.980;19.776;2023-03-21T10:48:52;99356.41;;;12.77;100.00
38939;BME280;24211;49.980;19.776;2023-03-21T10:51:27;99357.78;;;12.80;100.00
38939;BME280;24211;49.980;19.776;2023-03-21T10:54:07;99356.50;;;12.82;100.00
38939;BME280;24211;49.980;19.776;2023-03-21T10:56:39;99359.75;;;12.84;100.00
38939;BME280;24211;49.980;19.776;2023-03-21T10:59:19;99349.69;;;12.91;100.00
38939;BME280;24211;49.980;19.776;2023-03-21T11:01:51;99345.00;;;12.98;100.00
38939;BME280;24211;49.980;19.776;2023-03-21T11:04:28;99339.50;;;13.05;100.00
38939;BME280;24211;49.980;19.776;2023-03-21T11:07:01;99348.16;;;13.07;100.00
38939;BME280;24211;49.980;19.776;2023-03-21T11:09:52;99342.28;;;13.10;100.00
38939;BME280;24211;49.980;19.776;2023-03-21T11:12:47;99346.06;;;13.09;100.00
38939;BME280;24211;49.980;19.776;2023-03-21T11:18:30;99343.97;;;12.99;100.00
38939;BME280;24211;49.980;19.776;2023-03-21T11:21:08;99344.44;;;12.96;100.00
38939;BME280;24211;49.980;19.776;2023-03-21T11:23:48;99346.03;;;12.97;100.00
38939;BME280;24211;49.980;19.776;2023-03-21T11:26:35;99341.75;;;12.96;100.00
38939;BME280;24211;49.980;19.776;2023-03-21T11:29:39;99341.09;;;12.89;100.00
38939;BME280;24211;49.980;19.776;2023-03-21T11:32:33;99344.66;;;12.95;100.00
38939;BME280;24211;49.980;19.776;2023-03-21T11:35:19;99348.56;;;12.87;100.00
38939;BME280;24211;49.980;19.776;2023-03-21T11:37:56;99348.56;;;12.87;100.00
38939;BME280;24211;49.980;19.776;2023-03-21T11:40:35;99334.75;;;12.95;100.00
38939;BME280;24211;49.980;19.776;2023-03-21T11:46:08;99339.38;;;13.00;100.00
38939;BME280;24211;49.980;19.776;2023-03-21T11:48:53;99333.81;;;13.01;100.00
38939;BME280;24211;49.980;19.776;2023-03-21T11:51:45;99338.81;;;12.98;100.00
38939;BME280;24211;49.980;19.776;2023-03-21T11:55:08;99335.81;;;12.94;100.00
38939;BME280;24211;49.980;19.776;2023-03-21T11:58:04;99331.19;;;12.90;100.00
38939;BME280;24211;49.980;19.776;2023-03-21T12:04:12;99326.50;;;12.85;100.00
38939;BME280;24211;49.980;19.776;2023-03-21T12:07:11;99327.91;;;12.88;100.00
38939;BME280;24211;49.980;19.776;2023-03-21T12:13:43;99321.88;;;12.81;100.00
38939;BME280;24211;49.980;19.776;2023-03-21T12:19:54;99326.19;;;12.70;100.00
38939;BME280;24211;49.980;19.776;2023-03-21T12:22:48;99327.84;;;12.71;100.00
38939;BME280;24211;49.980;19.776;2023-03-21T12:25:35;99325.06;;;12.66;100.00
38939;BME280;24211;49.980;19.776;2023-03-21T12:34:58;99324.38;;;12.59;100.00
38939;BME280;24211;49.980;19.776;2023-03-21T12:46:03;99313.56;;;12.54;100.00
38939;BME280;24211;49.980;19.776;2023-03-21T12:51:21;99307.25;;;12.60;100.00
38939;BME280;24211;49.980;19.776;2023-03-21T12:54:13;99303.41;;;12.56;100.00
38939;BME280;24211;49.980;19.776;2023-03-21T12:59:33;99300.63;;;12.51;100.00
38939;BME280;24211;49.980;19.776;2023-03-21T13:02:28;99307.16;;;12.55;100.00
38939;BME280;24211;49.980;19.776;2023-03-21T13:05:30;99300.50;;;12.58;100.00
38939;BME280;24211;49.980;19.776;2023-03-21T13:08:13;99298.63;;;12.58;100.00
38939;BME280;24211;49.980;19.776;2023-03-21T13:10:45;99289.16;;;12.67;100.00
38939;BME280;24211;49.980;19.776;2023-03-21T13:13:30;99294.53;;;12.67;100.00
38939;BME280;24211;49.980;19.776;2023-03-21T13:19:18;99288.28;;;12.78;100.00
38939;BME280;24211;49.980;19.776;2023-03-21T13:22:23;99286.28;;;12.85;100.00
38939;BME280;24211;49.980;19.776;2023-03-21T13:25:05;99284.84;;;12.94;100.00
38939;BME280;24211;49.980;19.776;2023-03-21T13:27:36;99281.28;;;13.05;100.00
38939;BME280;24211;49.980;19.776;2023-03-21T13:32:44;99278.91;;;13.21;100.00
38939;BME280;24211;49.980;19.776;2023-03-21T13:35:32;99275.84;;;13.29;100.00
38939;BME280;24211;49.980;19.776;2023-03-21T13:38:19;99273.72;;;13.31;100.00
38939;BME280;24211;49.980;19.776;2023-03-21T13:41:33;99276.97;;;13.33;100.00
38939;BME280;24211;49.980;19.776;2023-03-21T13:46:58;99271.69;;;13.21;100.00
38939;BME280;24211;49.980;19.776;2023-03-21T13:49:34;99268.16;;;13.21;100.00
38939;BME280;24211;49.980;19.776;2023-03-21T13:54:53;99268.00;;;13.10;100.00
38939;BME280;24211;49.980;19.776;2023-03-21T13:57:35;99278.03;;;13.03;100.00
38939;BME280;24211;49.980;19.776;2023-03-21T14:00:29;99273.06;;;12.95;100.00
38939;BME280;24211;49.980;19.776;2023-03-21T14:03:14;99278.31;;;12.90;100.00
38939;BME280;24211;49.980;19.776;2023-03-21T14:05:49;99270.69;;;12.82;100.00
38939;BME280;24211;49.980;19.776;2023-03-21T14:08:19;99275.44;;;12.80;100.00
38939;BME280;24211;49.980;19.776;2023-03-21T14:11:11;99275.34;;;12.75;100.00
38939;BME280;24211;49.980;19.776;2023-03-21T14:13:45;99275.75;;;12.67;100.00
38939;BME280;24211;49.980;19.776;2023-03-21T14:16:28;99282.31;;;12.60;100.00
38939;BME280;24211;49.980;19.776;2023-03-21T14:19:45;99294.13;;;12.47;100.00
38939;BME280;24211;49.980;19.776;2023-03-21T14:22:39;99293.34;;;12.35;100.00
38939;BME280;24211;49.980;19.776;2023-03-21T14:25:21;99295.34;;;12.28;100.00
38939;BME280;24211;49.980;19.776;2023-03-21T14:29:01;99293.94;;;12.14;100.00
38939;BME280;24211;49.980;19.776;2023-03-21T14:31:34;99291.16;;;12.09;100.00
38939;BME280;24211;49.980;19.776;2023-03-21T14:34:05;99297.44;;;12.03;100.00
38939;BME280;24211;49.980;19.776;2023-03-21T14:36:39;99296.75;;;11.96;100.00
38939;BME280;24211;49.980;19.776;2023-03-21T14:39:25;99294.53;;;11.93;100.00
38939;BME280;24211;49.980;19.776;2023-03-21T14:42:06;99296.06;;;11.89;100.00
38939;BME280;24211;49.980;19.776;2023-03-21T14:44:51;99290.34;;;11.85;100.00
38939;BME280;24211;49.980;19.776;2023-03-21T14:47:28;99302.34;;;11.82;100.00
38939;BME280;24211;49.980;19.776;2023-03-21T14:50:01;99295.94;;;11.84;100.00
38939;BME280;24211;49.980;19.776;2023-03-21T14:52:33;99291.06;;;11.80;100.00
38939;BME280;24211;49.980;19.776;2023-03-21T14:55:13;99300.72;;;11.82;100.00
38939;BME280;24211;49.980;19.776;2023-03-21T14:57:47;99286.72;;;11.79;100.00
38939;BME280;24211;49.980;19.776;2023-03-21T15:00:29;99285.13;;;11.78;100.00